createdAt,value
2023-05-12T00:03:35.730Z,12.91
2023-05-12T00:08:25.385Z,12.85
2023-05-12T00:13:15.124Z,12.81
2023-05-12T00:18:07.880Z,12.77
2023-05-12T00:22:57.566Z,12.72
2023-05-12T00:27:47.719Z,12.65
2023-05-12T00:32:37.829Z,12.50
2023-05-12T00:37:30.024Z,12.37
2023-05-12T00:42:19.940Z,12.21
2023-05-12T00:47:12.601Z,12.09
2023-05-12T00:52:02.724Z,11.95
2023-05-12T00:56:56.279Z,12.06
2023-05-12T01:01:51.091Z,11.97
2023-05-12T01:06:51.213Z,11.88
2023-05-12T01:11:41.479Z,11.75
2023-05-12T01:16:36.832Z,11.98
2023-05-12T01:21:26.484Z,11.95
2023-05-12T01:26:22.503Z,11.89
2023-05-12T01:31:12.974Z,11.83
2023-05-12T01:36:03.116Z,11.81
2023-05-12T01:40:52.730Z,11.76
2023-05-12T01:45:45.793Z,11.73
2023-05-12T01:50:36.171Z,11.73
2023-05-12T01:55:31.422Z,11.70
2023-05-12T02:00:21.951Z,11.67
2023-05-12T02:05:17.706Z,11.63
2023-05-12T02:10:11.538Z,11.58
2023-05-12T02:15:01.355Z,11.51
2023-05-12T02:19:52.857Z,11.49
2023-05-12T02:24:45.110Z,11.41
2023-05-12T02:29:38.280Z,11.10
2023-05-12T02:34:29.437Z,11.14
2023-05-12T02:39:19.843Z,11.02
2023-05-12T02:44:12.551Z,11.04
2023-05-12T02:49:02.364Z,11.12
2023-05-12T02:53:52.370Z,11.12
2023-05-12T02:58:41.999Z,11.10
2023-05-12T03:03:34.671Z,11.09
2023-05-12T03:08:24.515Z,11.07
2023-05-12T03:13:14.216Z,11.04
2023-05-12T03:18:04.040Z,11.00
2023-05-12T03:22:56.994Z,10.99
2023-05-12T03:27:46.777Z,10.99
2023-05-12T03:32:39.348Z,11.01
2023-05-12T03:37:32.934Z,10.81
2023-05-12T03:42:27.032Z,10.80
2023-05-12T03:47:17.329Z,10.77
2023-05-12T03:52:08.970Z,10.56
2023-05-12T03:56:58.902Z,10.62
2023-05-12T04:01:51.601Z,10.74
2023-05-12T04:06:41.945Z,10.65
2023-05-12T04:11:34.615Z,10.54
2023-05-12T04:16:24.526Z,10.60
2023-05-12T04:21:17.073Z,10.62
2023-05-12T04:26:07.832Z,10.58
2023-05-12T04:30:58.840Z,10.71
2023-05-12T04:35:49.261Z,10.70
2023-05-12T04:40:42.075Z,10.71
2023-05-12T04:45:32.064Z,10.80
2023-05-12T04:50:22.012Z,10.84
2023-05-12T04:55:17.405Z,10.88
2023-05-12T05:00:17.623Z,10.91
2023-05-12T05:05:09.978Z,10.93
2023-05-12T05:09:59.791Z,10.99
2023-05-12T05:14:54.309Z,11.01
2023-05-12T05:19:57.840Z,11.17
2023-05-12T05:24:53.230Z,11.26
2023-05-12T05:30:30.378Z,11.28
2023-05-12T05:36:08.269Z,11.31
2023-05-12T05:41:31.256Z,11.42
2023-05-12T05:46:28.187Z,11.45
2023-05-12T05:51:29.549Z,11.50
2023-05-12T05:56:19.506Z,11.45
2023-05-12T06:01:17.222Z,11.48
2023-05-12T06:06:10.330Z,11.64
2023-05-12T06:11:02.692Z,11.71
2023-05-12T06:15:52.851Z,11.75
2023-05-12T06:20:42.782Z,11.82
2023-05-12T06:25:33.453Z,11.84
2023-05-12T06:30:27.113Z,11.90
2023-05-12T06:35:18.129Z,11.96
2023-05-12T06:40:08.799Z,12.05
2023-05-12T06:44:58.436Z,12.04
2023-05-12T06:49:50.715Z,12.13
2023-05-12T06:54:40.831Z,12.23
2023-05-12T06:59:31.055Z,12.29
2023-05-12T07:04:21.776Z,12.34
2023-05-12T07:09:14.422Z,12.39
2023-05-12T07:14:04.019Z,12.51
2023-05-12T07:18:53.718Z,12.59
2023-05-12T07:23:43.504Z,12.69
2023-05-12T07:28:36.825Z,12.80
2023-05-12T07:33:26.414Z,12.87
2023-05-12T07:38:16.216Z,12.97
2023-05-12T07:43:06.863Z,12.89
2023-05-12T07:47:59.251Z,12.97
2023-05-12T07:52:49.824Z,13.10
2023-05-12T07:57:39.393Z,13.37
2023-05-12T08:02:30.545Z,13.58
2023-05-12T08:07:23.697Z,13.94
2023-05-12T08:12:14.368Z,14.12
2023-05-12T08:17:05.389Z,14.36
2023-05-12T08:21:55.168Z,14.84
2023-05-12T08:26:48.557Z,14.96
2023-05-12T08:31:38.335Z,14.91
2023-05-12T08:36:28.065Z,14.93
2023-05-12T08:41:19.517Z,15.10
2023-05-12T08:46:15.944Z,15.41
2023-05-12T08:51:06.845Z,15.48
2023-05-12T08:57:09.120Z,15.66
2023-05-12T09:01:12.360Z,15.74
2023-05-12T09:06:05.019Z,15.83
2023-05-12T09:10:54.758Z,16.02
2023-05-12T09:15:45.661Z,16.20
2023-05-12T09:20:38.174Z,16.34
2023-05-12T09:25:30.472Z,16.46
2023-05-12T09:30:20.160Z,16.48
2023-05-12T09:35:11.474Z,16.73
2023-05-12T09:40:04.911Z,17.17
2023-05-12T09:44:57.552Z,17.46
2023-05-12T09:49:49.852Z,18.46
2023-05-12T09:54:43.910Z,18.91
2023-05-12T09:59:36.311Z,18.54
2023-05-12T10:04:29.524Z,18.73
2023-05-12T10:09:23.665Z,19.06
2023-05-12T10:14:13.824Z,19.25
2023-05-12T10:19:04.674Z,19.34
2023-05-12T10:23:58.059Z,19.16
2023-05-12T10:28:51.196Z,19.05
2023-05-12T10:33:41.444Z,19.31
2023-05-12T10:38:39.754Z,19.58
2023-05-12T10:43:41.637Z,19.65
2023-05-12T10:48:31.535Z,19.57
2023-05-12T10:53:48.363Z,19.42
2023-05-12T10:59:12.685Z,19.60
2023-05-12T11:04:13.658Z,19.46
2023-05-12T11:09:05.069Z,19.56
2023-05-12T11:13:58.515Z,19.79
2023-05-12T11:18:50.317Z,19.90
2023-05-12T11:23:40.256Z,20.18
2023-05-12T11:28:31.321Z,20.36
2023-05-12T11:33:26.266Z,20.45
2023-05-12T11:38:18.939Z,20.69
2023-05-12T11:43:12.949Z,20.93
2023-05-12T11:48:12.025Z,20.99
2023-05-12T11:53:04.977Z,20.94
2023-05-12T11:58:02.914Z,20.97
2023-05-12T12:02:52.795Z,20.86
2023-05-12T12:07:42.927Z,20.59
2023-05-12T12:12:35.514Z,20.20
2023-05-12T12:17:30.999Z,20.44
2023-05-12T12:22:20.936Z,20.56
2023-05-12T12:27:10.804Z,20.77
2023-05-12T12:32:03.493Z,21.10
2023-05-12T12:36:53.348Z,21.38
2023-05-12T12:41:44.265Z,21.57
2023-05-12T12:46:34.194Z,21.71
2023-05-12T12:51:38.485Z,21.84
2023-05-12T12:56:35.057Z,21.82
2023-05-12T13:01:25.073Z,21.75
2023-05-12T13:06:14.828Z,21.34
2023-05-12T13:11:09.118Z,21.13
2023-05-12T13:15:58.883Z,20.82
2023-05-12T13:20:48.686Z,20.91
2023-05-12T13:25:38.357Z,21.22
2023-05-12T13:30:30.800Z,21.61
2023-05-12T13:35:20.699Z,21.88
2023-05-12T13:40:14.059Z,22.01
2023-05-12T13:45:04.614Z,21.79
2023-05-12T13:49:57.485Z,21.70
2023-05-12T13:54:46.964Z,21.33
2023-05-12T13:59:36.435Z,21.49
2023-05-12T14:04:26.134Z,21.44
2023-05-12T14:09:18.321Z,21.50
2023-05-12T14:14:08.006Z,21.37
2023-05-12T14:19:01.124Z,21.58
2023-05-12T14:23:51.974Z,21.84
2023-05-12T14:28:44.138Z,21.91
2023-05-12T14:33:33.633Z,22.21
2023-05-12T14:38:23.209Z,22.38
2023-05-12T14:43:13.643Z,22.58
2023-05-12T14:48:06.466Z,22.81
2023-05-12T14:52:58.367Z,22.87
2023-05-12T14:57:48.330Z,22.82
2023-05-12T15:02:38.363Z,22.79
2023-05-12T15:07:34.513Z,22.94
2023-05-12T15:12:24.719Z,23.05
2023-05-12T15:17:14.640Z,23.02
2023-05-12T15:22:04.588Z,22.78
2023-05-12T15:27:07.403Z,22.20
2023-05-12T15:31:57.628Z,22.39
2023-05-12T15:36:49.057Z,22.40
2023-05-12T15:41:39.182Z,22.42
2023-05-12T15:46:32.281Z,22.57
2023-05-12T15:51:24.522Z,22.70
2023-05-12T15:56:14.312Z,22.71
2023-05-12T16:01:05.653Z,22.57
2023-05-12T16:05:59.581Z,22.54
2023-05-12T16:10:49.862Z,22.70
2023-05-12T16:15:39.811Z,22.69
2023-05-12T16:20:29.962Z,22.65
2023-05-12T16:25:22.985Z,22.71
2023-05-12T16:30:16.637Z,22.72
2023-05-12T16:35:08.847Z,22.62
2023-05-12T16:39:58.662Z,22.37
2023-05-12T16:44:51.699Z,22.13
2023-05-12T16:49:41.502Z,21.98
2023-05-12T16:54:33.437Z,21.86
2023-05-12T16:59:23.257Z,21.77
2023-05-12T17:04:15.913Z,21.78
2023-05-12T17:09:05.963Z,21.83
2023-05-12T17:13:56.582Z,21.69
2023-05-12T17:23:42.078Z,20.88
2023-05-12T17:28:33.352Z,19.95
2023-05-12T17:33:23.658Z,18.71
2023-05-12T17:38:13.502Z,17.83
2023-05-12T17:43:06.218Z,17.64
2023-05-12T17:47:56.853Z,17.37
2023-05-12T17:52:48.490Z,17.36
2023-05-12T17:57:38.789Z,17.30
2023-05-12T18:02:33.437Z,17.38
2023-05-12T18:07:23.454Z,17.33
2023-05-12T18:12:14.211Z,17.20
2023-05-12T18:17:04.128Z,16.82
2023-05-12T18:21:56.940Z,17.02
2023-05-12T18:26:47.430Z,17.12
2023-05-12T18:31:37.302Z,17.12
2023-05-12T18:36:27.122Z,17.10
2023-05-12T18:41:19.554Z,17.12
2023-05-12T18:46:09.546Z,17.12
2023-05-12T18:50:59.852Z,17.11
2023-05-12T18:55:52.153Z,17.19
2023-05-12T19:00:44.986Z,17.18
2023-05-12T19:05:39.105Z,17.18
2023-05-12T19:10:30.097Z,17.02
2023-05-12T19:15:21.414Z,16.99
2023-05-12T19:20:15.102Z,17.09
2023-05-12T19:25:06.247Z,17.01
2023-05-12T19:29:57.649Z,16.80
2023-05-12T19:34:47.818Z,16.75
2023-05-12T19:39:42.612Z,16.80
2023-05-12T19:44:36.838Z,16.72
2023-05-12T19:49:26.917Z,16.76
2023-05-12T19:54:16.680Z,16.70
2023-05-12T19:59:09.226Z,16.63
2023-05-12T20:03:59.343Z,16.69
2023-05-12T20:08:49.626Z,16.63
2023-05-12T20:13:39.602Z,16.59
2023-05-12T20:18:32.154Z,16.61
2023-05-12T20:23:24.220Z,16.59
2023-05-12T20:28:14.295Z,16.52
2023-05-12T20:33:04.573Z,16.60
2023-05-12T20:37:57.218Z,16.53
2023-05-12T20:42:51.101Z,16.56
2023-05-12T20:47:41.133Z,16.35
2023-05-12T20:52:31.713Z,16.34
2023-05-12T20:57:24.262Z,16.31
2023-05-12T21:02:14.288Z,16.33
2023-05-12T21:07:04.747Z,16.31
2023-05-12T21:11:54.637Z,16.26
2023-05-12T21:16:47.100Z,16.08
2023-05-12T21:21:37.035Z,16.11
2023-05-12T21:26:26.900Z,16.08
2023-05-12T21:31:16.832Z,16.02
2023-05-12T21:36:10.988Z,16.01
2023-05-12T21:41:01.331Z,15.89
2023-05-12T21:45:51.327Z,15.81
2023-05-12T21:50:41.317Z,15.82
2023-05-12T21:55:33.721Z,15.71
2023-05-12T22:00:24.064Z,15.76
2023-05-12T22:05:14.261Z,15.74
2023-05-12T22:10:05.971Z,15.70
2023-05-12T22:14:58.457Z,15.69
2023-05-12T22:19:50.416Z,15.41
2023-05-12T22:24:40.262Z,15.55
2023-05-12T22:29:30.367Z,15.44
2023-05-12T22:34:23.161Z,15.47
2023-05-12T22:39:13.875Z,15.42
2023-05-12T22:44:03.938Z,15.35
2023-05-12T22:48:53.803Z,15.37
2023-05-12T22:53:46.196Z,15.33
2023-05-12T22:58:36.113Z,15.33
2023-05-12T23:03:26.218Z,15.30
2023-05-12T23:08:16.196Z,15.22
2023-05-12T23:13:08.666Z,15.26
2023-05-12T23:17:58.493Z,15.23
2023-05-12T23:22:48.393Z,15.18
2023-05-12T23:27:38.761Z,15.08
2023-05-12T23:32:31.415Z,15.12
2023-05-12T23:37:22.624Z,15.11
2023-05-12T23:42:13.573Z,14.98
2023-05-12T23:47:03.863Z,15.08
2023-05-12T23:51:56.758Z,15.04
2023-05-12T23:56:47.094Z,14.84
